Time;durP1;ratioP1;P1;durP2;ratioP2;P2;SDS_P1;SDS_P2;PMS_P1;PMS_P2;Temp;Humidity;BMP_temperature;BMP_pressure;BME280_temperature;BME280_humidity;BME280_pressure;Samples;Min_cycle;Max_cycle;Signal;HPM_P1;HPM_P2
2021/04/03 00:00:48;;;;;;;3.60;2.72;;;;;;;3.53;72.46;99040.48;1737130;82;21157;-62
2021/04/03 00:03:17;;;;;;;3.47;2.50;;;;;;;3.48;73.03;99047.79;1709058;82;21671;-63
2021/04/03 00:05:45;;;;;;;4.00;3.70;;;;;;;3.47;73.45;99051.47;1708314;84;21101;-64
2021/04/03 00:08:13;;;;;;;11.48;3.20;;;;;;;3.46;73.72;99053.01;1730817;82;21626;-64
2021/04/03 00:10:50;;;;;;;3.72;3.02;;;;;;;3.43;73.89;99050.29;1753916;81;21113;-64
2021/04/03 00:13:19;;;;;;;4.30;3.05;;;;;;;3.40;73.97;99050.73;1746552;81;21153;-64
2021/04/03 00:15:48;;;;;;;4.42;2.98;;;;;;;3.39;74.08;99046.96;1734549;81;21591;-63
2021/04/03 00:18:16;;;;;;;4.50;2.75;;;;;;;3.37;73.97;99045.03;1734338;82;21204;-62
2021/04/03 00:20:49;;;;;;;4.60;3.08;;;;;;;3.37;73.92;99043.19;1736814;82;21112;-67
2021/04/03 00:23:18;;;;;;;4.08;2.60;;;;;;;3.40;73.86;99044.61;1736895;82;21145;-65
2021/04/03 00:25:46;;;;;;;5.08;3.02;;;;;;;3.40;73.71;99044.61;1738448;81;21185;-62
2021/04/03 00:28:13;;;;;;;3.65;2.22;;;;;;;3.40;73.68;99039.29;1747136;81;23558;-63
2021/04/03 00:30:42;;;;;;;5.28;3.08;;;;;;;3.41;73.64;99046.20;1716020;81;21117;-63
2021/04/03 00:33:10;;;;;;;6.90;2.98;;;;;;;3.39;73.68;99048.29;1724804;81;21606;-63
2021/04/03 00:35:40;;;;;;;4.00;2.60;;;;;;;3.36;73.61;99046.05;1766717;81;21030;-67
2021/04/03 00:38:10;;;;;;;5.35;2.95;;;;;;;3.35;73.50;99047.92;1744901;81;21423;-63
2021/04/03 00:43:23;;;;;;;2.97;2.73;;;;;;;3.39;73.49;99041.64;1902555;75;22779;-62
2021/04/03 00:45:51;;;;;;;4.65;2.92;;;;;;;3.34;73.55;99042.81;1864015;77;21117;-64
2021/04/03 00:48:19;;;;;;;4.03;2.67;;;;;;;3.32;73.54;99040.37;1856912;77;21617;-62
2021/04/03 00:50:50;;;;;;;7.37;3.83;;;;;;;3.33;73.58;99043.33;1829930;78;21547;-62
2021/04/03 00:53:20;;;;;;;6.37;3.00;;;;;;;3.32;73.70;99045.69;1842460;77;21791;-63
2021/04/03 00:55:50;;;;;;;5.12;3.45;;;;;;;3.32;73.80;99040.88;1832757;77;21081;-64
2021/04/03 00:58:19;;;;;;;7.30;3.77;;;;;;;3.30;73.87;99046.44;1828813;77;21619;-64
2021/04/03 01:00:47;;;;;;;6.05;3.47;;;;;;;3.27;73.97;99052.68;1808819;77;21205;-63
2021/04/03 01:03:15;;;;;;;3.27;2.90;;;;;;;3.26;73.98;99061.16;1846152;77;21433;-61
2021/04/03 01:05:43;;;;;;;5.12;3.27;;;;;;;3.24;74.01;99053.95;1829871;78;20972;-63
2021/04/03 01:08:11;;;;;;;5.67;3.50;;;;;;;3.21;73.96;99049.59;1851580;77;21669;-62
2021/04/03 01:10:43;;;;;;;6.17;4.25;;;;;;;3.19;73.91;99049.80;1840477;77;21117;-61
2021/04/03 01:13:54;;;;;;;5.92;3.70;;;;;;;3.17;73.78;99057.16;1829949;78;22279;-63
2021/04/03 01:16:36;;;;;;;5.87;3.92;;;;;;;3.17;73.69;99053.69;1829888;78;21642;-62
2021/04/03 01:19:35;;;;;;;5.03;3.17;;;;;;;3.15;73.56;99051.78;1829853;78;21577;-61
2021/04/03 01:22:15;;;;;;;4.15;3.00;;;;;;;3.14;73.51;99046.98;1816399;77;21192;-62
2021/04/03 01:25:33;;;;;;;4.45;3.30;;;;;;;3.15;73.46;99049.13;1830644;77;21113;-64
2021/04/03 01:28:30;;;;;;;8.38;4.08;;;;;;;3.17;73.42;99059.00;1830443;77;21439;-61
2021/04/03 01:30:58;;;;;;;4.10;3.27;;;;;;;3.16;73.20;99046.27;1791392;77;21139;-62
2021/04/03 01:33:27;;;;;;;4.95;3.47;;;;;;;3.17;73.12;99055.83;1831141;78;21555;-62
2021/04/03 01:36:03;;;;;;;5.28;3.42;;;;;;;3.17;73.07;99051.84;1769315;79;21168;-62
2021/04/03 01:38:37;;;;;;;4.28;3.47;;;;;;;3.15;73.03;99057.09;1799951;78;21130;-63
2021/04/03 01:41:07;;;;;;;5.80;4.62;;;;;;;3.13;73.00;99059.95;1738269;79;21394;-62
2021/04/03 01:43:41;;;;;;;6.92;4.58;;;;;;;3.13;72.99;99056.48;1788440;80;21189;-67
2021/04/03 01:46:09;;;;;;;6.05;4.28;;;;;;;3.11;72.92;99055.39;1749476;81;21845;-64
2021/04/03 01:48:39;;;;;;;5.55;3.87;;;;;;;3.11;72.92;99051.92;1782543;80;21543;-63
2021/04/03 01:51:11;;;;;;;5.67;3.17;;;;;;;3.11;72.90;99050.59;1782938;80;21146;-62
2021/04/03 01:53:38;;;;;;;6.30;3.92;;;;;;;3.10;72.89;99057.75;1791603;79;21383;-62
2021/04/03 01:56:10;;;;;;;12.70;4.60;;;;;;;3.10;72.84;99056.42;1793309;80;21050;-63
2021/04/03 01:58:40;;;;;;;7.92;4.28;;;;;;;3.10;72.76;99057.75;1786855;80;21164;-62
2021/04/03 02:01:10;;;;;;;5.83;3.60;;;;;;;3.10;72.75;99054.27;1771646;79;21778;-62
2021/04/03 02:03:39;;;;;;;5.05;3.83;;;;;;;3.08;72.80;99055.81;1771426;81;21448;-62
2021/04/03 02:06:09;;;;;;;6.17;3.52;;;;;;;3.06;72.87;99048.59;1772269;81;21366;-59
2021/04/03 02:08:48;;;;;;;5.50;3.93;;;;;;;3.08;72.94;99046.00;1808837;77;22745;-62
2021/04/03 02:11:20;;;;;;;7.12;3.90;;;;;;;3.03;72.78;99045.02;1749596;80;21011;-64
2021/04/03 02:13:49;;;;;;;7.00;3.80;;;;;;;3.03;72.70;99047.16;1775964;80;21865;-62
2021/04/03 02:16:17;;;;;;;5.95;3.83;;;;;;;3.05;72.67;99041.13;1780212;80;20996;-63
2021/04/03 02:18:45;;;;;;;6.53;4.12;;;;;;;3.05;72.62;99042.97;1781415;80;21023;-61
2021/04/03 02:21:14;;;;;;;6.28;4.62;;;;;;;3.02;72.60;99043.42;1779148;80;21011;-64
2021/04/03 02:23:45;;;;;;;6.40;3.87;;;;;;;3.03;72.57;99043.69;1764391;80;20998;-63
2021/04/03 02:26:15;;;;;;;4.95;3.75;;;;;;;3.02;72.52;99036.23;1765231;80;21581;-64
2021/04/03 02:28:44;;;;;;;6.17;4.17;;;;;;;3.05;72.42;99037.15;1774770;80;21130;-62
2021/04/03 02:31:13;;;;;;;5.42;3.58;;;;;;;3.11;72.33;99039.97;1781449;80;21166;-62
2021/04/03 02:33:41;;;;;;;6.78;4.08;;;;;;;3.13;72.19;99037.89;1780493;80;21563;-63
2021/04/03 02:36:09;;;;;;;4.97;3.72;;;;;;;3.15;72.12;99034.52;1781414;80;21177;-62
2021/04/03 02:38:37;;;;;;;5.47;4.40;;;;;;;3.16;72.02;99030.83;1777863;80;21326;-63
2021/04/03 02:41:07;;;;;;;6.90;4.25;;;;;;;3.18;71.96;99034.88;1712174;83;21301;-62
2021/04/03 02:43:51;;;;;;;3.52;3.08;;;;;;;3.19;71.87;99035.19;1733082;82;21129;-63
2021/04/03 02:46:26;;;;;;;5.05;4.10;;;;;;;3.21;71.84;99037.63;1714959;82;21577;-63
2021/04/03 02:48:58;;;;;;;4.50;3.40;;;;;;;3.21;71.81;99033.64;1710173;83;21184;-62
2021/04/03 02:51:39;;;;;;;8.98;5.83;;;;;;;3.22;71.79;99035.25;1737970;82;21206;-63
2021/04/03 02:54:09;;;;;;;7.00;4.78;;;;;;;3.22;71.79;99039.23;1707953;82;21211;-62
2021/04/03 02:56:37;;;;;;;4.72;3.40;;;;;;;3.22;71.80;99030.75;1714526;82;21597;-63
2021/04/03 02:59:05;;;;;;;6.60;4.53;;;;;;;3.25;71.77;99040.97;1709736;84;21112;-61
2021/04/03 03:01:34;;;;;;;7.92;3.67;;;;;;;3.27;71.63;99033.56;1709950;82;21136;-63
2021/04/03 03:04:05;;;;;;;6.57;3.50;;;;;;;3.28;71.53;99033.87;1705690;82;21376;-62
2021/04/03 03:06:33;;;;;;;7.60;6.37;;;;;;;3.30;71.48;99034.98;1704533;82;21372;-62
2021/04/03 03:09:04;;;;;;;7.55;5.20;;;;;;;3.27;71.41;99028.25;1722693;83;21151;-61
2021/04/03 03:11:34;;;;;;;6.53;4.53;;;;;;;3.25;71.41;99022.88;1697028;81;22249;-62
2021/04/03 03:14:03;;;;;;;5.72;4.00;;;;;;;3.27;71.29;99030.91;1665099;84;21177;-66
2021/04/03 03:16:33;;;;;;;6.20;4.70;;;;;;;3.30;71.05;99029.16;1688443;83;21389;-65
2021/04/03 03:19:01;;;;;;;9.10;4.65;;;;;;;3.32;71.03;99028.92;1683890;84;21637;-62
2021/04/03 03:21:29;;;;;;;4.78;3.98;;;;;;;3.33;71.11;99034.54;1722816;83;21145;-63
2021/04/03 03:23:57;;;;;;;5.58;4.12;;;;;;;3.37;71.11;99035.72;1725253;82;21122;-62
2021/04/03 03:26:32;;;;;;;6.85;5.60;;;;;;;3.38;71.07;99034.19;1771129;81;21134;-62
2021/04/03 03:29:03;;;;;;;5.45;4.10;;;;;;;3.42;71.01;99035.88;1724195;82;21435;-63
2021/04/03 03:31:31;;;;;;;4.90;3.75;;;;;;;3.40;70.95;99029.48;1754960;81;21268;-63
2021/04/03 03:33:59;;;;;;;5.87;4.33;;;;;;;3.41;70.89;99040.37;1760550;81;21019;-62
2021/04/03 03:36:28;;;;;;;4.22;3.33;;;;;;;3.40;70.95;99036.63;1740267;81;21575;-62
2021/04/03 03:38:59;;;;;;;3.90;3.33;;;;;;;3.38;71.06;99036.03;1740059;82;21161;-61
2021/04/03 03:41:27;;;;;;;6.83;4.03;;;;;;;3.35;71.07;99030.65;1740019;82;21192;-62
2021/04/03 03:43:55;;;;;;;4.05;3.30;;;;;;;3.34;71.07;99030.34;1764326;81;20999;-64
2021/04/03 03:46:24;;;;;;;5.58;4.30;;;;;;;3.30;71.25;99030.49;1744438;81;21536;-62
2021/04/03 03:48:52;;;;;;;6.92;4.42;;;;;;;3.27;71.46;99034.08;1770518;81;21118;-63
2021/04/03 03:51:20;;;;;;;8.28;4.42;;;;;;;3.20;71.81;99026.70;1743248;81;21156;-63
2021/04/03 03:53:54;;;;;;;6.03;3.77;;;;;;;3.17;72.07;99032.44;1769916;81;22181;-62
2021/04/03 03:56:22;;;;;;;6.65;4.62;;;;;;;3.12;72.34;99030.43;1770578;81;21642;-63
2021/04/03 03:58:50;;;;;;;5.33;3.98;;;;;;;3.07;72.65;99034.25;1770292;80;21599;-65
2021/04/03 04:01:19;;;;;;;7.70;4.92;;;;;;;3.02;72.90;99037.56;1767058;81;21563;-63
2021/04/03 04:03:48;;;;;;;5.97;4.45;;;;;;;2.97;73.19;99031.30;1764783;81;21150;-63
2021/04/03 04:06:18;;;;;;;6.45;4.90;;;;;;;2.94;73.29;99037.84;1767511;81;21193;-63
2021/04/03 04:08:48;;;;;;;7.72;4.22;;;;;;;2.95;73.21;99039.98;1761379;81;21139;-60
2021/04/03 04:11:18;;;;;;;4.75;3.87;;;;;;;2.93;73.19;99042.85;1782047;80;21082;-61
2021/04/03 04:13:48;;;;;;;6.67;5.03;;;;;;;2.92;73.14;99043.09;1777015;80;21018;-62
2021/04/03 04:16:18;;;;;;;6.05;4.47;;;;;;;2.90;72.96;99051.26;1777976;80;21157;-62
2021/04/03 04:18:46;;;;;;;6.17;4.55;;;;;;;2.90;72.80;99050.44;1781703;80;21352;-63
2021/04/03 04:21:17;;;;;;;6.22;4.62;;;;;;;2.89;72.72;99053.61;1780766;80;21191;-65
2021/04/03 04:23:46;;;;;;;6.67;4.37;;;;;;;2.87;72.62;99049.56;1780282;80;21165;-61
2021/04/03 04:26:14;;;;;;;9.28;4.75;;;;;;;2.86;72.45;99055.37;1779137;80;21011;-64
2021/04/03 04:28:44;;;;;;;6.08;4.35;;;;;;;2.85;72.24;99057.73;1781576;80;21138;-61
2021/04/03 04:31:14;;;;;;;8.15;4.80;;;;;;;2.85;72.14;99061.72;1781478;80;22139;-62
2021/04/03 04:33:45;;;;;;;5.90;4.12;;;;;;;2.85;72.16;99059.56;1780102;80;21055;-63
2021/04/03 04:36:14;;;;;;;5.92;4.25;;;;;;;2.87;72.13;99061.51;1781531;80;21133;-63
2021/04/03 04:38:42;;;;;;;9.73;5.30;;;;;;;2.87;72.14;99060.18;1779711;80;21129;-62
2021/04/03 04:41:12;;;;;;;9.80;5.35;;;;;;;2.87;72.10;99062.83;1774001;80;20960;-62
2021/04/03 04:43:40;;;;;;;8.73;4.72;;;;;;;2.88;72.04;99063.92;1776972;80;22418;-64
2021/04/03 04:46:08;;;;;;;5.83;4.70;;;;;;;2.87;72.09;99066.31;1767682;80;21619;-63
2021/04/03 04:48:41;;;;;;;7.45;4.58;;;;;;;2.87;71.96;99062.83;1759200;80;21026;-63
2021/04/03 04:51:10;;;;;;;8.83;5.17;;;;;;;2.90;71.87;99059.73;1711713;83;21613;-64
2021/04/03 04:53:38;;;;;;;9.35;6.10;;;;;;;2.93;71.87;99064.09;1768379;80;21574;-62
2021/04/03 04:56:08;;;;;;;10.68;5.87;;;;;;;2.95;71.76;99063.37;1776417;80;21258;-63
2021/04/03 04:58:38;;;;;;;13.80;8.45;;;;;;;2.97;71.68;99068.48;1781394;80;21065;-63
2021/04/03 05:01:06;;;;;;;10.53;6.67;;;;;;;2.99;71.76;99066.41;1750187;80;21531;-62
2021/04/03 05:03:35;;;;;;;11.55;5.95;;;;;;;3.02;71.75;99057.48;1778793;80;21134;-63
2021/04/03 05:06:04;;;;;;;10.80;7.00;;;;;;;3.06;71.65;99062.69;1776276;80;21146;-64
2021/04/03 05:08:32;;;;;;;8.68;6.58;;;;;;;3.08;71.61;99061.13;1753804;80;21376;-64
2021/04/03 05:10:59;;;;;;;11.55;6.65;;;;;;;3.11;71.66;99063.36;1750540;82;21165;-65
2021/04/03 05:13:29;;;;;;;10.40;7.53;;;;;;;3.14;71.74;99065.58;1750585;82;20960;-65
2021/04/03 05:15:57;;;;;;;9.90;6.08;;;;;;;3.16;71.78;99070.17;1753428;80;21053;-62
2021/04/03 05:18:25;;;;;;;11.08;6.75;;;;;;;3.20;71.81;99071.87;1750537;82;21150;-64
2021/04/03 05:20:53;;;;;;;11.15;6.97;;;;;;;3.21;71.87;99067.67;1754935;80;21555;-64
2021/04/03 05:23:21;;;;;;;12.00;7.58;;;;;;;3.25;71.88;99066.20;1763978;80;21438;-64
2021/04/03 05:25:48;;;;;;;10.80;6.45;;;;;;;3.30;71.90;99074.85;1767295;80;22213;-62
2021/04/03 05:28:16;;;;;;;11.90;7.17;;;;;;;3.35;71.85;99074.50;1750501;82;21145;-63
2021/04/03 05:30:45;;;;;;;12.75;6.83;;;;;;;3.42;71.83;99073.91;1751771;82;21146;-63
2021/04/03 05:33:13;;;;;;;8.03;5.97;;;;;;;3.49;71.84;99078.66;1712113;83;21404;-63
2021/04/03 05:35:42;;;;;;;9.33;4.97;;;;;;;3.58;71.73;99086.34;1750899;80;21109;-63
2021/04/03 05:38:10;;;;;;;7.15;5.20;;;;;;;3.63;71.56;99089.16;1750599;82;21189;-62
2021/04/03 05:40:38;;;;;;;10.95;6.20;;;;;;;3.67;71.46;99076.53;1762893;80;21141;-62
2021/04/03 05:43:06;;;;;;;11.53;6.78;;;;;;;3.71;71.34;99076.38;1781355;80;21121;-62
2021/04/03 05:45:38;;;;;;;9.55;5.90;;;;;;;3.76;71.21;99077.87;1759771;80;22261;-63
2021/04/03 05:48:08;;;;;;;9.98;6.50;;;;;;;3.80;71.11;99074.23;1750447;82;21176;-63
2021/04/03 05:50:36;;;;;;;11.28;5.83;;;;;;;3.83;71.18;99073.81;1750551;82;21262;-63
2021/04/03 05:53:05;;;;;;;6.85;5.60;;;;;;;3.90;71.15;99071.87;1750606;82;20995;-65
2021/04/03 05:55:32;;;;;;;10.10;6.20;;;;;;;3.94;71.03;99070.40;1759483;80;21129;-62
2021/04/03 05:58:03;;;;;;;9.05;6.25;;;;;;;3.97;71.08;99067.83;1779503;80;21198;-63
2021/04/03 06:00:30;;;;;;;8.13;5.65;;;;;;;4.00;71.07;99072.18;1779877;80;21768;-65
2021/04/03 06:02:58;;;;;;;6.50;4.00;;;;;;;4.06;71.01;99072.63;1757757;80;21189;-66
2021/04/03 06:05:26;;;;;;;10.40;5.50;;;;;;;4.12;71.05;99073.59;1751051;80;21126;-66
2021/04/03 06:07:54;;;;;;;11.35;5.65;;;;;;;4.15;70.94;99071.28;1750120;80;21768;-66
2021/04/03 06:10:22;;;;;;;9.30;5.42;;;;;;;4.22;70.90;99084.52;1747470;80;22595;-65
2021/04/03 06:12:50;;;;;;;6.95;4.92;;;;;;;4.30;70.86;99083.69;1777060;80;21165;-66
2021/04/03 06:15:34;;;;;;;19.32;5.42;;;;;;;4.37;70.70;99083.59;1770037;80;21176;-67
2021/04/03 06:18:11;;;;;;;12.25;5.90;;;;;;;4.42;70.62;99086.39;1775678;80;21100;-67
2021/04/03 06:20:42;;;;;;;6.37;4.67;;;;;;;4.50;70.64;99096.75;1768490;80;21110;-66
2021/04/03 06:23:10;;;;;;;8.43;4.25;;;;;;;4.56;70.26;99095.01;1744719;82;21198;-65
2021/04/03 06:25:56;;;;;;;6.97;5.15;;;;;;;4.59;69.99;99094.06;1745273;80;21583;-66
2021/04/03 06:28:30;;;;;;;5.87;4.17;;;;;;;4.65;69.65;99101.13;1744812;80;21019;-67
2021/04/03 06:31:15;;;;;;;7.87;5.12;;;;;;;4.71;69.41;99100.75;1709140;84;21193;-66
2021/04/03 06:33:44;;;;;;;10.00;5.72;;;;;;;4.81;69.58;99097.02;1707742;83;21202;-65
2021/04/03 06:36:16;;;;;;;8.15;6.10;;;;;;;4.94;69.45;99094.70;1751262;81;21573;-71
2021/04/03 06:38:48;;;;;;;7.85;5.30;;;;;;;5.06;69.37;99100.34;1750639;80;21153;-68
2021/04/03 06:41:19;;;;;;;8.75;6.05;;;;;;;5.19;68.82;99102.80;1764320;80;21178;-66
2021/04/03 06:44:09;;;;;;;8.10;6.15;;;;;;;5.26;68.71;99113.36;1775106;80;21749;-66
2021/04/03 06:46:43;;;;;;;7.78;5.50;;;;;;;5.35;68.62;99113.83;1757589;80;21237;-64
2021/04/03 06:49:13;;;;;;;11.38;7.22;;;;;;;5.45;68.61;99117.56;1744700;81;21181;-68
2021/04/03 06:51:42;;;;;;;7.92;5.17;;;;;;;5.52;68.61;99114.77;1752913;80;21133;-68
2021/04/03 06:54:12;;;;;;;14.03;6.17;;;;;;;5.58;68.45;99119.19;1776468;80;21065;-67
2021/04/03 06:56:39;;;;;;;12.40;7.20;;;;;;;5.58;68.38;99120.52;1762121;80;21598;-66
2021/04/03 06:59:11;;;;;;;10.20;7.25;;;;;;;5.62;68.40;99129.16;1752564;80;21166;-65
2021/04/03 07:01:56;;;;;;;12.30;7.87;;;;;;;5.66;68.35;99130.31;1775434;80;21031;-67
2021/04/03 07:04:42;;;;;;;17.45;7.72;;;;;;;5.70;68.39;99128.02;1750218;80;21571;-66
2021/04/03 07:07:10;;;;;;;8.05;6.28;;;;;;;5.75;68.57;99133.98;1745408;80;21165;-66
2021/04/03 07:09:38;;;;;;;8.33;6.03;;;;;;;5.79;68.51;99127.95;1759608;80;21564;-71
2021/04/03 07:12:07;;;;;;;11.93;7.35;;;;;;;5.83;68.41;99131.78;1745382;80;21141;-67
2021/04/03 07:14:37;;;;;;;12.00;6.97;;;;;;;5.90;68.25;99131.70;1756364;80;21592;-67
2021/04/03 07:17:05;;;;;;;11.95;7.10;;;;;;;5.95;68.17;99126.44;1715837;82;21165;-66
2021/04/03 07:19:33;;;;;;;9.88;6.33;;;;;;;6.03;67.94;99135.45;1746749;80;20984;-63
2021/04/03 07:22:02;;;;;;;9.78;6.65;;;;;;;6.09;67.70;99138.53;1759196;80;21922;-66
2021/04/03 07:24:32;;;;;;;8.95;6.28;;;;;;;6.14;67.35;99143.42;1744777;82;21028;-66
2021/04/03 07:27:00;;;;;;;7.17;4.92;;;;;;;6.22;66.74;99146.80;1680759;84;22347;-66
2021/04/03 07:29:50;;;;;;;7.42;4.78;;;;;;;6.28;65.98;99146.68;1682183;84;21205;-64
2021/04/03 07:32:31;;;;;;;6.87;4.35;;;;;;;6.35;64.96;99155.36;1642907;84;21504;-68
2021/04/03 07:34:59;;;;;;;6.67;3.92;;;;;;;6.45;64.08;99149.41;1641493;86;21107;-66
2021/04/03 07:37:34;;;;;;;8.33;4.03;;;;;;;6.51;62.87;99149.30;1664760;85;21140;-66
2021/04/03 07:40:04;;;;;;;4.22;3.70;;;;;;;6.63;62.37;99159.11;1674460;85;22175;-64
2021/04/03 07:42:40;;;;;;;5.05;3.35;;;;;;;6.72;61.46;99157.69;1668204;86;21172;-65
2021/04/03 07:45:41;;;;;;;4.97;3.17;;;;;;;6.80;60.53;99170.17;1681698;84;21171;-65
2021/04/03 07:48:12;;;;;;;5.92;3.67;;;;;;;6.89;60.25;99166.59;1702376;83;21254;-64
2021/04/03 07:50:48;;;;;;;5.95;3.50;;;;;;;6.96;59.25;99161.38;1648077;86;21609;-64
2021/04/03 07:53:33;;;;;;;7.47;5.50;;;;;;;7.03;59.32;99181.81;1639469;87;21431;-65
2021/04/03 07:56:01;;;;;;;;;;;;;;;7.08;59.70;99171.21;1651831;87;21179;-65
2021/04/03 07:58:33;;;;;;;4.67;2.87;;;;;;;7.13;59.51;99164.09;1675837;85;20182;-65
2021/04/03 08:01:06;;;;;;;4.22;3.17;;;;;;;7.17;59.60;99169.25;1685551;84;21224;-64
2021/04/03 08:03:35;;;;;;;5.37;3.95;;;;;;;7.23;57.86;99177.66;1703482;84;21209;-65
2021/04/03 08:06:06;;;;;;;6.22;4.10;;;;;;;7.27;57.43;99170.77;1649618;86;21417;-64
2021/04/03 08:08:39;;;;;;;;;;;;;;;7.31;57.20;99164.40;1667534;85;21171;-65
2021/04/03 08:11:15;;;;;;;3.05;2.62;;;;;;;7.38;57.52;99175.77;1635855;87;20233;-64
2021/04/03 08:13:48;;;;;;;4.53;3.72;;;;;;;7.43;57.58;99176.64;1672764;84;21143;-65
2021/04/03 08:16:17;;;;;;;4.67;3.08;;;;;;;7.51;57.44;99177.31;1697225;84;21159;-65
2021/04/03 08:18:50;;;;;;;3.55;2.55;;;;;;;7.59;57.25;99180.39;1675900;84;21200;-65
2021/04/03 08:21:19;;;;;;;10.18;4.65;;;;;;;7.69;56.83;99181.90;1694398;84;21075;-64
2021/04/03 08:23:54;;;;;;;5.40;3.22;;;;;;;7.76;56.43;99186.58;1677170;84;21132;-64
2021/04/03 08:26:25;;;;;;;7.12;4.05;;;;;;;7.82;56.49;99190.12;1693964;84;21190;-63
2021/04/03 08:28:54;;;;;;;6.90;3.67;;;;;;;7.89;56.59;99186.23;1695785;84;21146;-65
2021/04/03 08:31:28;;;;;;;3.08;2.77;;;;;;;7.98;57.05;99186.63;1695766;84;21395;-65
2021/04/03 08:33:58;;;;;;;5.60;4.17;;;;;;;8.04;57.24;99180.30;1665147;85;21036;-65
2021/04/03 08:36:29;;;;;;;4.22;2.70;;;;;;;8.12;57.39;99170.50;1640590;86;21222;-64
2021/04/03 08:38:57;;;;;;;4.80;3.27;;;;;;;8.23;57.50;99177.63;1640138;87;21181;-68
2021/04/03 08:41:27;;;;;;;5.45;3.15;;;;;;;8.31;57.26;99171.87;1640942;86;21639;-65
2021/04/03 08:43:57;;;;;;;5.22;2.77;;;;;;;8.42;55.87;99172.00;1665576;86;21208;-68
2021/04/03 08:46:25;;;;;;;12.03;2.70;;;;;;;8.50;54.19;99178.27;1667372;86;21296;-64
2021/04/03 08:48:57;;;;;;;3.42;2.70;;;;;;;8.57;53.21;99179.72;1667418;86;21205;-63
2021/04/03 08:51:28;;;;;;;3.65;2.40;;;;;;;8.65;53.25;99175.78;1667386;86;21225;-66
2021/04/03 08:54:00;;;;;;;3.73;2.30;;;;;;;8.72;52.98;99169.70;1666361;85;21612;-65
2021/04/03 08:56:34;;;;;;;5.72;3.45;;;;;;;8.78;51.34;99177.29;1662618;86;21279;-64
2021/04/03 08:59:10;;;;;;;3.40;2.15;;;;;;;8.83;50.31;99174.64;1665992;86;21605;-66
2021/04/03 09:01:44;;;;;;;2.98;2.37;;;;;;;8.84;47.96;99171.71;1666022;86;21096;-66
2021/04/03 09:04:12;;;;;;;5.83;2.98;;;;;;;8.86;47.50;99172.81;1665538;86;21143;-64
2021/04/03 09:06:57;;;;;;;1.98;1.75;;;;;;;8.90;47.25;99164.02;1667461;86;21238;-67
2021/04/03 09:09:28;;;;;;;2.35;1.57;;;;;;;8.94;45.32;99153.05;1667255;84;21380;-65
2021/04/03 09:12:05;;;;;;;4.67;2.08;;;;;;;8.97;44.22;99155.22;1667565;85;21150;-64
2021/04/03 09:14:36;;;;;;;1.45;1.35;;;;;;;8.99;42.73;99163.84;1621890;88;21219;-65
2021/04/03 09:17:19;;;;;;;2.60;1.80;;;;;;;9.03;41.27;99160.11;1639161;87;21081;-63
2021/04/03 09:19:47;;;;;;;4.60;2.30;;;;;;;9.06;40.75;99156.95;1649398;87;21167;-63
2021/04/03 09:22:20;;;;;;;3.75;2.12;;;;;;;9.07;40.21;99158.55;1638892;87;22132;-67
2021/04/03 09:24:56;;;;;;;2.75;1.87;;;;;;;9.10;40.57;99163.42;1646698;87;21239;-66
2021/04/03 09:27:26;;;;;;;5.53;2.27;;;;;;;9.17;40.56;99178.77;1620303;88;21648;-64
2021/04/03 09:30:06;;;;;;;4.05;1.82;;;;;;;9.27;40.69;99168.66;1646219;87;21233;-66
2021/04/03 09:32:46;;;;;;;7.20;1.95;;;;;;;9.34;40.18;99165.26;1666370;86;21197;-66
2021/04/03 09:35:29;;;;;;;2.33;1.72;;;;;;;9.42;39.83;99163.45;1666937;86;22147;-67
2021/04/03 09:38:03;;;;;;;2.42;1.82;;;;;;;9.51;39.85;99168.09;1669152;86;21159;-63
2021/04/03 09:40:44;;;;;;;3.83;1.80;;;;;;;9.55;39.40;99173.22;1668264;85;21203;-64
2021/04/03 09:43:14;;;;;;;5.97;2.52;;;;;;;9.53;39.89;99168.66;1621560;88;21184;-66
2021/04/03 09:45:43;;;;;;;2.90;2.40;;;;;;;9.44;40.40;99166.70;1622291;88;21221;-65
2021/04/03 09:48:12;;;;;;;2.17;1.95;;;;;;;9.36;40.82;99165.80;1641018;86;22283;-65
2021/04/03 09:50:41;;;;;;;1.80;1.47;;;;;;;9.35;40.78;99177.06;1640929;86;21213;-64
2021/04/03 09:53:12;;;;;;;4.22;2.35;;;;;;;9.35;40.35;99175.72;1622900;88;21597;-67
2021/04/03 09:55:40;;;;;;;3.20;2.25;;;;;;;9.36;40.11;99178.69;1629624;87;21276;-63
2021/04/03 09:58:07;;;;;;;3.00;2.00;;;;;;;9.37;40.13;99170.11;1630390;87;21187;-65
2021/04/03 10:00:37;;;;;;;3.75;2.25;;;;;;;9.39;39.21;99186.78;1613365;89;21234;-63
2021/04/03 10:03:05;;;;;;;5.15;1.98;;;;;;;9.36;38.84;99177.34;1622876;88;21207;-64
2021/04/03 10:05:33;;;;;;;3.12;2.00;;;;;;;9.36;38.76;99179.22;1617700;88;21589;-65
2021/04/03 10:08:01;;;;;;;9.30;2.10;;;;;;;9.39;38.98;99180.06;1639059;87;21187;-64
2021/04/03 10:10:29;;;;;;;3.33;2.55;;;;;;;9.44;39.53;99186.30;1641834;86;21230;-66
2021/04/03 10:12:57;;;;;;;4.40;3.42;;;;;;;9.46;39.98;99173.94;1621584;88;21292;-67
2021/04/03 10:15:26;;;;;;;2.25;1.80;;;;;;;9.54;40.04;99176.19;1638676;87;21032;-65
2021/04/03 10:17:55;;;;;;;3.95;2.08;;;;;;;9.59;37.52;99182.94;1640290;87;21097;-64
2021/04/03 10:20:24;;;;;;;3.35;2.30;;;;;;;9.61;37.12;99185.63;1641393;87;21132;-64
2021/04/03 10:22:53;;;;;;;4.75;2.35;;;;;;;9.66;36.44;99171.44;1639669;87;21194;-64
2021/04/03 10:25:21;;;;;;;1.70;1.55;;;;;;;9.72;35.79;99172.30;1622067;87;21405;-64
2021/04/03 10:27:49;;;;;;;1.87;1.65;;;;;;;9.77;34.96;99193.28;1636446;87;21214;-63
2021/04/03 10:30:21;;;;;;;3.27;1.82;;;;;;;9.82;35.10;99192.52;1622901;87;21021;-63
2021/04/03 10:32:49;;;;;;;5.03;2.20;;;;;;;9.90;35.31;99188.81;1623066;88;21630;-64
2021/04/03 10:35:16;;;;;;;2.62;2.12;;;;;;;9.99;35.97;99187.80;1607225;88;21215;-66
2021/04/03 10:37:45;;;;;;;2.67;1.77;;;;;;;10.09;35.27;99199.95;1615156;88;22646;-64
2021/04/03 10:40:14;;;;;;;4.58;3.58;;;;;;;10.07;33.77;99199.42;1622535;88;21203;-63
2021/04/03 10:42:42;;;;;;;2.62;1.50;;;;;;;10.05;35.08;99184.89;1623082;87;21654;-63
2021/04/03 10:45:12;;;;;;;3.37;1.40;;;;;;;10.10;34.39;99181.96;1623021;88;21264;-64
2021/04/03 10:47:40;;;;;;;2.35;1.50;;;;;;;10.12;34.30;99191.37;1613747;87;21648;-63
2021/04/03 10:50:09;;;;;;;2.37;1.60;;;;;;;10.19;34.68;99173.19;1622792;88;21234;-66
2021/04/03 10:52:36;;;;;;;2.40;1.90;;;;;;;10.27;34.62;99178.06;1621613;87;21175;-64
2021/04/03 10:55:06;;;;;;;4.87;1.92;;;;;;;10.32;35.23;99190.19;1616655;87;21214;-66
2021/04/03 10:57:34;;;;;;;3.58;1.72;;;;;;;10.29;35.73;99173.78;1619208;88;21644;-64
2021/04/03 11:00:04;;;;;;;3.35;2.42;;;;;;;10.26;35.99;99175.66;1631891;88;21151;-66
2021/04/03 11:02:33;;;;;;;2.72;2.20;;;;;;;10.26;36.20;99169.75;1631785;87;21237;-65
2021/04/03 11:05:00;;;;;;;3.52;1.72;;;;;;;10.35;36.41;99172.75;1631581;88;21231;-63
2021/04/03 11:07:30;;;;;;;2.77;1.77;;;;;;;10.49;33.98;99189.49;1630709;88;21196;-65
2021/04/03 11:09:58;;;;;;;1.42;1.20;;;;;;;10.61;30.99;99185.76;1620469;87;21182;-64
2021/04/03 11:12:26;;;;;;;1.70;1.47;;;;;;;10.63;30.42;99186.31;1649322;87;21155;-65
2021/04/03 11:14:55;;;;;;;1.52;1.27;;;;;;;10.61;30.23;99193.30;1677850;85;21648;-66
2021/04/03 11:17:23;;;;;;;1.80;1.25;;;;;;;10.58;30.35;99164.25;1676328;85;21165;-66
2021/04/03 11:19:51;;;;;;;1.57;1.47;;;;;;;10.58;29.29;99178.23;1622995;87;21096;-65
2021/04/03 11:22:19;;;;;;;1.20;1.07;;;;;;;10.54;29.18;99166.38;1650279;86;21193;-64
2021/04/03 11:24:47;;;;;;;2.85;1.22;;;;;;;10.50;28.58;99164.77;1663764;85;21144;-66
2021/04/03 11:27:15;;;;;;;1.25;1.00;;;;;;;10.57;29.57;99182.79;1631320;87;21170;-66
2021/04/03 11:29:45;;;;;;;3.05;1.30;;;;;;;10.62;28.84;99172.06;1650316;85;21071;-65
2021/04/03 11:32:13;;;;;;;1.92;1.15;;;;;;;10.68;28.98;99162.14;1659854;85;21706;-67
2021/04/03 11:34:42;;;;;;;1.98;1.50;;;;;;;10.73;29.92;99154.91;1677778;85;21587;-67
2021/04/03 11:37:09;;;;;;;1.72;1.10;;;;;;;10.78;29.69;99155.45;1672448;85;21130;-65
2021/04/03 11:39:38;;;;;;;2.58;1.85;;;;;;;10.84;29.07;99171.33;1677680;85;21215;-64
2021/04/03 11:42:08;;;;;;;1.50;1.40;;;;;;;10.92;29.31;99176.75;1677930;85;21181;-66
2021/04/03 11:44:36;;;;;;;1.70;1.40;;;;;;;10.97;29.59;99177.30;1650554;86;21128;-65
2021/04/03 11:47:04;;;;;;;1.67;1.07;;;;;;;11.01;30.00;99160.36;1668283;85;21182;-66
2021/04/03 11:49:32;;;;;;;1.77;1.25;;;;;;;11.06;29.45;99161.72;1673857;85;21193;-66
2021/04/03 11:52:01;;;;;;;1.30;1.20;;;;;;;11.12;29.37;99171.96;1659139;85;22132;-66
2021/04/03 11:54:30;;;;;;;2.05;1.87;;;;;;;11.19;29.02;99177.87;1640848;85;21201;-64
2021/04/03 11:56:58;;;;;;;1.62;1.30;;;;;;;11.20;28.84;99162.01;1664172;85;21532;-64
2021/04/03 11:59:26;;;;;;;3.75;1.50;;;;;;;11.23;28.62;99152.05;1677687;85;21222;-64